• Join FlightAware (Why Join?)
  • Login
  • US Flag 
11:11AM EDT


 

Airport Tracker/Info


-or-


 

Live Flight TrackerFlight Track Log ✈ N983CA ✈ 18-Apr-2013 ✈ KPSP - KSFO

Flight Track Log - Related Links

Times and Time Zones

All times are in EDT time to prevent confusion due to time zone crossing. See the N983CA flight status page for this flight to view local times or setup timezone preferences in your user account.

Time Position Orientation Groundspeed Altitude Reporting Facility
EDT Latitude Longitude Course Direction KTS MPH feet Rate Location/Type
09:12AM 33.8486 -116.5286 342° North 169 194 26,000  Level Los Angeles Center
09:13AM 33.8942 -116.5686 324° Northwest 219 252 26,000 -9,360 Level Los Angeles Center
09:14AM 33.9467 -116.5733 356° North 198 228 7,000 -8,340 Descending Los Angeles Center
09:15AM 34.1571 -116.5310 348° North  Level FlightAware Approximate
09:15AM 34.0139 -116.5506 16° North 248 285 9,300  Level Los Angeles Center
09:16AM 34.2459 -116.5813 338° Northwest  Level FlightAware Approximate
09:16AM 34.0858 -116.5253 16° North 265 305 11,600  Level Los Angeles Center
09:17AM 34.3431 -116.6039 342° North  Level FlightAware Approximate
09:17AM 34.1603 -116.5403 351° North 290 334 13,400  Level Los Angeles Center
09:18AM 34.2392 -116.5725 341° North 299 344 15,500 1,920 Climbing Los Angeles Center
09:19AM 34.3211 -116.6053 342° North 308 354 17,300 1,500 Climbing Los Angeles Center
09:20AM 34.3781 -116.6797 313° West 325 374 18,600 1,440 Climbing Los Angeles Center
09:21AM 34.4036 -116.8108 283° West 335 386 20,300 1,500 Climbing Los Angeles Center
09:22AM 34.4242 -116.9231 283° West 340 391 21,700 1,260 Climbing Los Angeles Center
09:23AM 34.4453 -117.0361 283° West 344 396 22,900 1,080 Climbing Los Angeles Center
09:24AM 34.4675 -117.1533 283° West 354 407 23,900 1,140 Climbing Los Angeles Center
09:25AM 34.4886 -117.2731 282° West 361 415 25,200 1,020 Climbing Los Angeles Center
09:26AM 34.5106 -117.3917 283° West 361 415 26,000 360 Climbing Los Angeles Center
09:27AM 34.5333 -117.5169 282° West 376 433 26,000  Level Los Angeles Center
09:28AM 34.5575 -117.6497 282° West 398 458 26,000  Level Los Angeles Center
09:29AM 34.5825 -117.7867 283° West 412 474 26,000  Level Los Angeles Center
09:30AM 34.6058 -117.9217 282° West 408 470 26,000  Level Los Angeles Center
09:31AM 34.6314 -118.0564 283° West 410 472 26,000  Level Los Angeles Center
09:32AM 34.6906 -118.1717 302° West 402 463 26,000  Level Los Angeles Center
09:33AM 34.7511 -118.2836 303° West 397 457 26,000  Level Los Angeles Center
09:34AM 34.8108 -118.3975 303° West 397 457 26,000  Level Los Angeles Center
09:35AM 34.8772 -118.5172 304° West 397 457 26,000  Level Los Angeles Center
09:36AM 34.9347 -118.6278 302° West 394 453 26,000  Level Los Angeles Center
09:37AM 34.9892 -118.7442 300° West 398 458 26,000  Level Los Angeles Center
09:38AM 35.0394 -118.8617 298° West 395 455 26,000  Level Los Angeles Center
09:39AM 35.1014 -119.0031 298° West 394 453 26,000  Level Los Angeles Center
09:40AM 35.1511 -119.1225 297° West 396 456 26,000  Level Los Angeles Center
09:41AM 35.2025 -119.2389 298° West 396 456 26,000  Level Los Angeles Center
09:42AM 35.2533 -119.3592 297° West 399 459 26,000  Level Los Angeles Center
09:43AM 35.3031 -119.4781 297° West 396 456 26,000  Level Los Angeles Center
09:44AM 35.3539 -119.5975 298° West 398 458 26,000  Level Los Angeles Center
09:45AM 35.4039 -119.7169 297° West 401 461 26,000  Level Los Angeles Center
09:45AM 35.4219 -119.7631 296° West 397 457 26,000  Level Oakland Center
09:46AM 35.4725 -119.8833 297° West 400 460 26,000  Level Oakland Center
09:47AM 35.5222 -120.0033 297° West 400 460 26,000  Level Oakland Center
09:48AM 35.5719 -120.1217 297° West 397 457 26,000  Level Oakland Center
09:49AM 35.6197 -120.2408 296° West 396 456 26,000  Level Oakland Center
09:51AM 35.6678 -120.3586 297° West 393 452 26,000  Level Oakland Center
09:52AM 35.7272 -120.4667 304° West 393 452 26,000  Level Oakland Center
09:53AM 35.7961 -120.5664 310° West 385 443 26,000  Level Oakland Center
09:54AM 35.8800 -120.6858 311° West 386 444 26,000  Level Oakland Center
09:55AM 35.9489 -120.7856 310° West 385 443 26,000  Level Oakland Center
09:56AM 36.0181 -120.8853 311° West 384 442 26,000  Level Oakland Center
09:57AM 36.0869 -120.9856 310° West 384 442 26,000  Level Oakland Center
09:58AM 36.1558 -121.0869 310° West 387 445 26,000  Level Oakland Center
09:59AM 36.2244 -121.1875 310° West 384 442 26,000  Level Oakland Center
10:00AM 36.2936 -121.2894 310° West 388 447 26,000 -180 Level Oakland Center
10:01AM 36.3622 -121.3925 310° West 388 447 25,700 -900 Descending Oakland Center
10:02AM 36.4336 -121.4969 310° West 398 458 24,200 -1,500 Descending Oakland Center
10:03AM 36.5025 -121.6044 309° West 398 458 22,700 -1,620 Descending Oakland Center
10:03AM 36.5500 -121.6667 314° West 395 455 21,900 -1,860 Descending Northern Cal TRACON
10:04AM 36.6167 -121.7667 310° West 396 456 20,100 -1,920 Descending Northern Cal TRACON
10:05AM 36.6833 -121.8667 310° West 395 455 18,100 -1,800 Descending Northern Cal TRACON
10:06AM 36.7500 -121.9500 315° West 364 419 16,700 -1,860 Descending Northern Cal TRACON
10:07AM 36.8500 -122.0000 338° Northwest 329 379 14,400 -1,980 Descending Northern Cal TRACON
10:08AM 36.8869 -122.0008 359° North 330 380 13,300 -1,860 Descending Oakland Center
10:09AM 36.9728 -122.0244 348° North 317 365 11,300 -1,680 Descending Oakland Center
10:10AM 37.0533 -122.0436 349° North 296 341 10,000 -660 Descending Oakland Center
10:11AM 37.1181 -122.0614 348° North 242 278 10,000  Level Oakland Center
10:12AM 37.1633 -122.1322 309° West 247 284 10,000 -120 Level Oakland Center
10:13AM 37.1953 -122.2025 300° West 239 275 9,800 -900 Descending Oakland Center
10:14AM 37.2500 -122.2428 330° Northwest 225 259 8,200 -1,080 Descending Oakland Center
10:15AM 37.3050 -122.2528 352° North 226 260 7,700 -1,140 Descending Oakland Center
10:16AM 37.3583 -122.2217 25° Northeast 220 253 6,000 -1,620 Descending Oakland Center
10:17AM 37.4150 -122.2039 14° North 212 244 4,500 -1,080 Descending Oakland Center
10:18AM 37.4703 -122.1886 12° North 208 239 3,900 -840 Descending Oakland Center
10:19AM 37.5258 -122.1867 North 208 239 2,800 -780 Descending Oakland Center
10:20AM 37.5583 -122.2369 309° West 192 221 2,400 -420 Descending Oakland Center